Terminal Aerodrome Forecast
Issued by NWS

Home | Current Version | Previous Version | Text Only | Print | Product List | Glossary On
Versions: 1 2 3 4 5 6 7 8 9 10 11 12 13 14
000
FTUS45 KRIW 302030 AAA
TAFJAC
TAF AMD
KJAC 302030Z 3021/0118 26013KT P6SM VCSH SCT060 SCT080
     FM302300 21010KT P6SM VCSH SCT026 BKN035
      TEMPO 0106/0109 4SM -SN OVC020
     FM011100 21007KT P6SM SCT030 BKN045
      AMD LTD TO CLD VIS AND WIND=

USA.gov is the U.S. government's official web portal to all federal, state and local government web resources and services.